sensor_id;sensor_type;location;lat;lon;timestamp;pressure;altitude;pressure_sealevel;temperature;humidity
71976;BME280;68326;52.124;5.424;2023-09-08T00:02:12;101748.94;;;17.59;98.24
71976;BME280;68326;52.124;5.424;2023-09-08T00:04:39;101747.66;;;17.52;98.43
71976;BME280;68326;52.124;5.424;2023-09-08T00:07:06;101745.31;;;17.47;98.40
71976;BME280;68326;52.124;5.424;2023-09-08T00:09:32;101749.09;;;17.43;98.37
71976;BME280;68326;52.124;5.424;2023-09-08T00:11:59;101748.53;;;17.38;98.33
71976;BME280;68326;52.124;5.424;2023-09-08T00:14:26;101742.53;;;17.36;98.56
71976;BME280;68326;52.124;5.424;2023-09-08T00:16:52;101736.56;;;17.34;99.12
71976;BME280;68326;52.124;5.424;2023-09-08T00:19:22;101740.94;;;17.33;98.97
71976;BME280;68326;52.124;5.424;2023-09-08T00:21:52;101736.72;;;17.31;98.92
71976;BME280;68326;52.124;5.424;2023-09-08T00:24:18;101744.84;;;17.28;99.08
71976;BME280;68326;52.124;5.424;2023-09-08T00:26:45;101745.75;;;17.27;99.06
71976;BME280;68326;52.124;5.424;2023-09-08T00:29:11;101751.84;;;17.27;98.94
71976;BME280;68326;52.124;5.424;2023-09-08T00:31:38;101748.47;;;17.25;99.14
71976;BME280;68326;52.124;5.424;2023-09-08T00:34:05;101747.84;;;17.22;99.19
71976;BME280;68326;52.124;5.424;2023-09-08T00:36:33;101749.75;;;17.20;99.68
71976;BME280;68326;52.124;5.424;2023-09-08T00:38:59;101751.63;;;17.18;99.45
71976;BME280;68326;52.124;5.424;2023-09-08T00:41:26;101744.66;;;17.17;99.80
71976;BME280;68326;52.124;5.424;2023-09-08T00:43:52;101744.66;;;17.17;99.61
71976;BME280;68326;52.124;5.424;2023-09-08T00:46:19;101743.91;;;17.15;99.41
71976;BME280;68326;52.124;5.424;2023-09-08T00:48:46;101752.94;;;17.10;99.25
71976;BME280;68326;52.124;5.424;2023-09-08T00:51:12;101752.09;;;17.10;99.18
71976;BME280;68326;52.124;5.424;2023-09-08T00:53:39;101745.16;;;17.09;99.89
71976;BME280;68326;52.124;5.424;2023-09-08T00:56:06;101743.38;;;17.09;99.53
71976;BME280;68326;52.124;5.424;2023-09-08T00:58:35;101742.53;;;17.09;100.00
71976;BME280;68326;52.124;5.424;2023-09-08T01:01:02;101745.34;;;17.06;99.91
71976;BME280;68326;52.124;5.424;2023-09-08T01:03:28;101739.34;;;17.04;100.00
71976;BME280;68326;52.124;5.424;2023-09-08T01:05:55;101736.06;;;17.00;99.32
71976;BME280;68326;52.124;5.424;2023-09-08T01:08:22;101737.09;;;16.98;99.21
71976;BME280;68326;52.124;5.424;2023-09-08T01:10:48;101728.56;;;16.94;99.63
71976;BME280;68326;52.124;5.424;2023-09-08T01:13:15;101740.22;;;16.90;98.93
71976;BME280;68326;52.124;5.424;2023-09-08T01:15:41;101737.69;;;16.88;98.72
71976;BME280;68326;52.124;5.424;2023-09-08T01:18:08;101733.91;;;16.92;99.27
71976;BME280;68326;52.124;5.424;2023-09-08T01:21:10;101728.06;;;17.02;98.37
71976;BME280;68326;52.124;5.424;2023-09-08T01:26:10;101733.09;;;16.92;99.52
71976;BME280;68326;52.124;5.424;2023-09-08T01:28:41;101731.28;;;16.92;99.20
71976;BME280;68326;52.124;5.424;2023-09-08T01:31:08;101738.03;;;16.97;100.00
71976;BME280;68326;52.124;5.424;2023-09-08T01:33:35;101735.22;;;17.00;99.80
71976;BME280;68326;52.124;5.424;2023-09-08T01:36:02;101737.97;;;16.98;99.57
71976;BME280;68326;52.124;5.424;2023-09-08T01:38:29;101734.56;;;16.96;99.79
71976;BME280;68326;52.124;5.424;2023-09-08T01:40:56;101738.22;;;16.94;99.74
71976;BME280;68326;52.124;5.424;2023-09-08T01:43:23;101739.19;;;16.92;99.50
71976;BME280;68326;52.124;5.424;2023-09-08T01:45:50;101733.16;;;16.90;99.74
71976;BME280;68326;52.124;5.424;2023-09-08T01:48:16;101735.88;;;16.89;100.00
71976;BME280;68326;52.124;5.424;2023-09-08T01:50:43;101730.75;;;16.87;99.47
71976;BME280;68326;52.124;5.424;2023-09-08T01:53:09;101730.91;;;16.84;99.51
71976;BME280;68326;52.124;5.424;2023-09-08T01:55:36;101735.44;;;16.82;99.54
71976;BME280;68326;52.124;5.424;2023-09-08T01:58:02;101739.94;;;16.80;99.41
71976;BME280;68326;52.124;5.424;2023-09-08T02:00:29;101734.72;;;16.79;99.25
71976;BME280;68326;52.124;5.424;2023-09-08T02:02:55;101725.19;;;16.78;99.66
71976;BME280;68326;52.124;5.424;2023-09-08T02:05:22;101732.41;;;16.74;99.89
71976;BME280;68326;52.124;5.424;2023-09-08T02:07:49;101731.00;;;16.68;99.19
71976;BME280;68326;52.124;5.424;2023-09-08T02:10:15;101735.59;;;16.65;99.91
71976;BME280;68326;52.124;5.424;2023-09-08T02:12:42;101727.81;;;16.63;99.76
71976;BME280;68326;52.124;5.424;2023-09-08T02:15:09;101738.31;;;16.63;99.82
71976;BME280;68326;52.124;5.424;2023-09-08T02:17:37;101728.75;;;16.62;99.49
71976;BME280;68326;52.124;5.424;2023-09-08T02:20:04;101732.44;;;16.60;100.00
71976;BME280;68326;52.124;5.424;2023-09-08T02:22:31;101732.31;;;16.61;100.00
71976;BME280;68326;52.124;5.424;2023-09-08T02:24:57;101735.81;;;16.62;100.00
71976;BME280;68326;52.124;5.424;2023-09-08T02:27:24;101723.50;;;16.62;100.00
71976;BME280;68326;52.124;5.424;2023-09-08T02:29:51;101724.44;;;16.61;100.00
71976;BME280;68326;52.124;5.424;2023-09-08T02:32:17;101724.56;;;16.60;100.00
71976;BME280;68326;52.124;5.424;2023-09-08T02:34:44;101720.22;;;16.59;100.00
71976;BME280;68326;52.124;5.424;2023-09-08T02:37:10;101723.97;;;16.55;99.72
71976;BME280;68326;52.124;5.424;2023-09-08T02:39:37;101727.72;;;16.50;99.41
71976;BME280;68326;52.124;5.424;2023-09-08T02:42:04;101723.72;;;16.45;99.89
71976;BME280;68326;52.124;5.424;2023-09-08T02:44:31;101719.47;;;16.42;99.71
71976;BME280;68326;52.124;5.424;2023-09-08T02:46:58;101724.16;;;16.37;100.00
71976;BME280;68326;52.124;5.424;2023-09-08T02:49:24;101717.41;;;16.33;99.81
71976;BME280;68326;52.124;5.424;2023-09-08T02:51:51;101724.44;;;16.33;99.73
71976;BME280;68326;52.124;5.424;2023-09-08T02:54:17;101730.25;;;16.38;100.00
71976;BME280;68326;52.124;5.424;2023-09-08T02:56:44;101725.75;;;16.40;99.97
71976;BME280;68326;52.124;5.424;2023-09-08T02:59:10;101724.16;;;16.37;100.00
71976;BME280;68326;52.124;5.424;2023-09-08T03:01:37;101721.53;;;16.37;100.00
71976;BME280;68326;52.124;5.424;2023-09-08T03:04:04;101731.09;;;16.38;100.00
71976;BME280;68326;52.124;5.424;2023-09-08T03:06:30;101731.00;;;16.40;100.00
71976;BME280;68326;52.124;5.424;2023-09-08T03:08:58;101731.66;;;16.43;100.00
71976;BME280;68326;52.124;5.424;2023-09-08T03:11:25;101724.72;;;16.42;100.00
71976;BME280;68326;52.124;5.424;2023-09-08T03:13:51;101736.09;;;16.43;100.00
71976;BME280;68326;52.124;5.424;2023-09-08T03:16:18;101731.84;;;16.40;100.00
71976;BME280;68326;52.124;5.424;2023-09-08T03:18:45;101722.38;;;16.38;100.00
71976;BME280;68326;52.124;5.424;2023-09-08T03:21:14;101727.63;;;16.38;100.00
71976;BME280;68326;52.124;5.424;2023-09-08T03:23:43;101720.22;;;16.30;100.00
71976;BME280;68326;52.124;5.424;2023-09-08T03:26:10;101712.88;;;16.21;100.00
71976;BME280;68326;52.124;5.424;2023-09-08T03:28:37;101718.34;;;16.18;99.75
71976;BME280;68326;52.124;5.424;2023-09-08T03:31:05;101722.06;;;16.14;100.00
71976;BME280;68326;52.124;5.424;2023-09-08T03:33:32;101718.88;;;16.08;100.00
71976;BME280;68326;52.124;5.424;2023-09-08T03:35:59;101713.81;;;16.05;100.00
71976;BME280;68326;52.124;5.424;2023-09-08T03:38:26;101704.41;;;16.01;100.00
71976;BME280;68326;52.124;5.424;2023-09-08T03:40:52;101711.38;;;16.02;100.00
71976;BME280;68326;52.124;5.424;2023-09-08T03:43:19;101709.75;;;16.00;100.00
71976;BME280;68326;52.124;5.424;2023-09-08T03:45:45;101713.34;;;15.99;100.00
71976;BME280;68326;52.124;5.424;2023-09-08T03:48:13;101709.59;;;16.03;100.00
71976;BME280;68326;52.124;5.424;2023-09-08T03:50:40;101706.00;;;16.04;100.00
71976;BME280;68326;52.124;5.424;2023-09-08T03:53:07;101702.84;;;15.99;100.00
71976;BME280;68326;52.124;5.424;2023-09-08T03:55:33;101704.63;;;15.98;100.00
71976;BME280;68326;52.124;5.424;2023-09-08T03:58:00;101703.94;;;15.95;100.00
71976;BME280;68326;52.124;5.424;2023-09-08T04:00:26;101700.56;;;15.93;100.00
71976;BME280;68326;52.124;5.424;2023-09-08T04:02:53;101704.03;;;15.93;100.00
71976;BME280;68326;52.124;5.424;2023-09-08T04:05:20;101702.34;;;15.92;100.00
71976;BME280;68326;52.124;5.424;2023-09-08T04:07:47;101698.03;;;15.91;100.00
71976;BME280;68326;52.124;5.424;2023-09-08T04:10:13;101696.34;;;15.90;100.00
71976;BME280;68326;52.124;5.424;2023-09-08T04:12:40;101703.34;;;15.89;100.00
71976;BME280;68326;52.124;5.424;2023-09-08T04:15:08;101700.56;;;15.93;100.00
71976;BME280;68326;52.124;5.424;2023-09-08T04:17:35;101698.69;;;15.95;100.00
71976;BME280;68326;52.124;5.424;2023-09-08T04:20:06;101698.50;;;15.98;100.00
71976;BME280;68326;52.124;5.424;2023-09-08T04:22:33;101699.53;;;15.95;100.00
71976;BME280;68326;52.124;5.424;2023-09-08T04:25:01;101700.47;;;15.94;100.00
71976;BME280;68326;52.124;5.424;2023-09-08T04:27:27;101699.63;;;15.94;100.00
71976;BME280;68326;52.124;5.424;2023-09-08T04:29:54;101693.16;;;15.99;100.00
71976;BME280;68326;52.124;5.424;2023-09-08T04:32:21;101690.94;;;16.07;100.00
71976;BME280;68326;52.124;5.424;2023-09-08T04:34:47;101698.53;;;16.12;100.00
71976;BME280;68326;52.124;5.424;2023-09-08T04:37:15;101694.03;;;16.14;100.00
71976;BME280;68326;52.124;5.424;2023-09-08T04:39:42;101702.56;;;16.18;100.00
71976;BME280;68326;52.124;5.424;2023-09-08T04:42:08;101699.00;;;16.19;100.00
71976;BME280;68326;52.124;5.424;2023-09-08T04:44:35;101702.28;;;16.22;100.00
71976;BME280;68326;52.124;5.424;2023-09-08T04:47:02;101697.31;;;16.18;100.00
71976;BME280;68326;52.124;5.424;2023-09-08T04:49:28;101706.03;;;16.18;100.00
71976;BME280;68326;52.124;5.424;2023-09-08T04:51:56;101698.25;;;16.17;100.00
71976;BME280;68326;52.124;5.424;2023-09-08T04:54:22;101699.19;;;16.16;100.00
71976;BME280;68326;52.124;5.424;2023-09-08T04:56:53;101700.31;;;16.12;100.00
71976;BME280;68326;52.124;5.424;2023-09-08T04:59:29;101692.06;;;16.03;100.00
71976;BME280;68326;52.124;5.424;2023-09-08T05:01:56;101698.41;;;15.99;100.00
71976;BME280;68326;52.124;5.424;2023-09-08T05:04:22;101700.47;;;15.94;100.00
71976;BME280;68326;52.124;5.424;2023-09-08T05:06:49;101706.09;;;15.88;100.00
71976;BME280;68326;52.124;5.424;2023-09-08T05:09:15;101700.16;;;15.84;100.00
71976;BME280;68326;52.124;5.424;2023-09-08T05:11:42;101700.25;;;15.83;100.00
71976;BME280;68326;52.124;5.424;2023-09-08T05:14:08;101700.25;;;15.83;100.00
71976;BME280;68326;52.124;5.424;2023-09-08T05:16:35;101702.78;;;15.84;100.00
71976;BME280;68326;52.124;5.424;2023-09-08T05:19:16;101697.53;;;15.84;100.00
71976;BME280;68326;52.124;5.424;2023-09-08T05:21:42;101698.50;;;15.83;100.00
71976;BME280;68326;52.124;5.424;2023-09-08T05:24:09;101695.13;;;15.81;100.00
71976;BME280;68326;52.124;5.424;2023-09-08T05:26:37;101706.09;;;15.88;100.00
71976;BME280;68326;52.124;5.424;2023-09-08T05:29:05;101701.00;;;15.85;100.00
71976;BME280;68326;52.124;5.424;2023-09-08T05:31:32;101698.50;;;15.83;100.00
71976;BME280;68326;52.124;5.424;2023-09-08T05:33:59;101704.59;;;15.84;100.00
71976;BME280;68326;52.124;5.424;2023-09-08T05:36:25;101710.75;;;15.83;100.00
71976;BME280;68326;52.124;5.424;2023-09-08T05:38:52;101714.81;;;15.88;100.00
71976;BME280;68326;52.124;5.424;2023-09-08T05:41:18;101710.97;;;15.94;100.00
71976;BME280;68326;52.124;5.424;2023-09-08T05:43:44;101712.31;;;16.01;100.00
71976;BME280;68326;52.124;5.424;2023-09-08T05:46:12;101711.94;;;16.07;100.00
71976;BME280;68326;52.124;5.424;2023-09-08T05:48:39;101715.78;;;16.16;100.00
71976;BME280;68326;52.124;5.424;2023-09-08T05:51:06;101710.94;;;16.24;100.00
71976;BME280;68326;52.124;5.424;2023-09-08T05:53:33;101717.31;;;16.35;100.00
71976;BME280;68326;52.124;5.424;2023-09-08T05:56:00;101722.19;;;16.41;100.00
71976;BME280;68326;52.124;5.424;2023-09-08T05:58:26;101720.22;;;16.44;100.00
71976;BME280;68326;52.124;5.424;2023-09-08T06:00:54;101728.31;;;16.56;100.00
71976;BME280;68326;52.124;5.424;2023-09-08T06:03:20;101725.00;;;16.66;100.00
71976;BME280;68326;52.124;5.424;2023-09-08T06:05:47;101724.34;;;16.77;100.00
71976;BME280;68326;52.124;5.424;2023-09-08T06:08:13;101729.78;;;16.88;100.00
71976;BME280;68326;52.124;5.424;2023-09-08T06:10:40;101731.66;;;17.01;100.00
71976;BME280;68326;52.124;5.424;2023-09-08T06:13:07;101733.69;;;17.10;100.00
71976;BME280;68326;52.124;5.424;2023-09-08T06:15:34;101735.63;;;17.21;100.00
71976;BME280;68326;52.124;5.424;2023-09-08T06:18:00;101729.69;;;17.31;100.00
71976;BME280;68326;52.124;5.424;2023-09-08T06:20:27;101728.88;;;17.44;100.00
71976;BME280;68326;52.124;5.424;2023-09-08T06:22:54;101720.38;;;17.53;100.00
71976;BME280;68326;52.124;5.424;2023-09-08T06:25:20;101731.06;;;17.64;100.00
71976;BME280;68326;52.124;5.424;2023-09-08T06:27:47;101731.94;;;17.78;100.00
71976;BME280;68326;52.124;5.424;2023-09-08T06:30:13;101731.97;;;17.90;100.00
71976;BME280;68326;52.124;5.424;2023-09-08T06:32:42;101720.53;;;18.04;100.00
71976;BME280;68326;52.124;5.424;2023-09-08T06:35:09;101726.84;;;18.14;100.00
71976;BME280;68326;52.124;5.424;2023-09-08T06:37:37;101731.38;;;18.25;100.00
71976;BME280;68326;52.124;5.424;2023-09-08T06:40:04;101733.28;;;18.36;100.00
71976;BME280;68326;52.124;5.424;2023-09-08T06:42:32;101736.13;;;18.46;100.00
71976;BME280;68326;52.124;5.424;2023-09-08T06:44:59;101738.72;;;18.59;100.00
71976;BME280;68326;52.124;5.424;2023-09-08T06:47:26;101729.22;;;18.69;100.00
71976;BME280;68326;52.124;5.424;2023-09-08T06:49:52;101731.97;;;18.80;100.00
71976;BME280;68326;52.124;5.424;2023-09-08T06:52:19;101739.25;;;18.89;100.00
71976;BME280;68326;52.124;5.424;2023-09-08T06:54:46;101741.22;;;18.99;99.57
71976;BME280;68326;52.124;5.424;2023-09-08T06:57:13;101739.63;;;19.09;100.00
71976;BME280;68326;52.124;5.424;2023-09-08T06:59:40;101745.91;;;19.19;99.73
71976;BME280;68326;52.124;5.424;2023-09-08T07:02:07;101744.16;;;19.31;99.41
71976;BME280;68326;52.124;5.424;2023-09-08T07:04:34;101739.06;;;19.41;98.64
71976;BME280;68326;52.124;5.424;2023-09-08T07:07:01;101745.13;;;19.54;98.73
71976;BME280;68326;52.124;5.424;2023-09-08T07:09:36;101751.16;;;19.67;98.48
71976;BME280;68326;52.124;5.424;2023-09-08T07:12:04;101750.75;;;19.73;96.31
71976;BME280;68326;52.124;5.424;2023-09-08T07:14:31;101754.38;;;19.84;95.45
71976;BME280;68326;52.124;5.424;2023-09-08T07:16:58;101749.13;;;19.95;94.69
71976;BME280;68326;52.124;5.424;2023-09-08T07:19:26;101743.03;;;20.06;93.78
71976;BME280;68326;52.124;5.424;2023-09-08T07:21:52;101746.75;;;20.14;97.30
71976;BME280;68326;52.124;5.424;2023-09-08T07:24:19;101743.53;;;20.22;95.65
71976;BME280;68326;52.124;5.424;2023-09-08T07:26:46;101744.75;;;20.29;93.56
71976;BME280;68326;52.124;5.424;2023-09-08T07:29:12;101743.31;;;20.36;92.25
71976;BME280;68326;52.124;5.424;2023-09-08T07:31:39;101746.94;;;20.47;92.76
71976;BME280;68326;52.124;5.424;2023-09-08T07:34:05;101742.59;;;20.57;91.35
71976;BME280;68326;52.124;5.424;2023-09-08T07:36:32;101750.56;;;20.68;90.86
71976;BME280;68326;52.124;5.424;2023-09-08T07:38:58;101746.97;;;20.81;91.85
71976;BME280;68326;52.124;5.424;2023-09-08T07:41:25;101753.06;;;20.92;91.73
71976;BME280;68326;52.124;5.424;2023-09-08T07:43:51;101751.25;;;21.04;89.73
71976;BME280;68326;52.124;5.424;2023-09-08T07:46:18;101753.97;;;21.14;90.89
71976;BME280;68326;52.124;5.424;2023-09-08T07:48:45;101747.81;;;21.25;90.08
71976;BME280;68326;52.124;5.424;2023-09-08T07:51:11;101756.69;;;21.35;88.94
71976;BME280;68326;52.124;5.424;2023-09-08T07:53:38;101755.84;;;21.46;88.23
71976;BME280;68326;52.124;5.424;2023-09-08T07:56:05;101748.94;;;21.54;86.44
71976;BME280;68326;52.124;5.424;2023-09-08T07:58:32;101754.47;;;21.63;88.70
71976;BME280;68326;52.124;5.424;2023-09-08T08:00:59;101754.28;;;21.75;90.15
71976;BME280;68326;52.124;5.424;2023-09-08T08:03:26;101750.88;;;21.85;87.87
71976;BME280;68326;52.124;5.424;2023-09-08T08:05:52;101740.44;;;21.93;85.24
71976;BME280;68326;52.124;5.424;2023-09-08T08:08:19;101745.69;;;22.04;85.70
71976;BME280;68326;52.124;5.424;2023-09-08T08:10:45;101746.44;;;22.16;85.16
71976;BME280;68326;52.124;5.424;2023-09-08T08:13:12;101743.50;;;22.30;83.87
71976;BME280;68326;52.124;5.424;2023-09-08T08:15:40;101750.28;;;22.44;82.75
71976;BME280;68326;52.124;5.424;2023-09-08T08:18:08;101742.94;;;22.57;82.53
71976;BME280;68326;52.124;5.424;2023-09-08T08:20:38;101746.31;;;22.69;81.57
71976;BME280;68326;52.124;5.424;2023-09-08T08:23:06;101758.09;;;22.86;83.44
71976;BME280;68326;52.124;5.424;2023-09-08T08:25:33;101743.88;;;22.97;81.30
71976;BME280;68326;52.124;5.424;2023-09-08T08:27:59;101743.22;;;23.05;82.49
71976;BME280;68326;52.124;5.424;2023-09-08T08:30:27;101742.84;;;23.19;80.38
71976;BME280;68326;52.124;5.424;2023-09-08T08:32:54;101735.03;;;23.27;79.05
71976;BME280;68326;52.124;5.424;2023-09-08T08:35:20;101728.31;;;23.43;79.54
71976;BME280;68326;52.124;5.424;2023-09-08T08:37:47;101734.16;;;23.56;81.05
71976;BME280;68326;52.124;5.424;2023-09-08T08:40:13;101739.19;;;23.69;79.89
71976;BME280;68326;52.124;5.424;2023-09-08T08:42:41;101740.75;;;23.81;80.74
71976;BME280;68326;52.124;5.424;2023-09-08T08:45:08;101733.88;;;23.98;75.92
71976;BME280;68326;52.124;5.424;2023-09-08T08:47:35;101739.72;;;24.11;76.75
71976;BME280;68326;52.124;5.424;2023-09-08T08:50:02;101730.97;;;24.29;77.20
71976;BME280;68326;52.124;5.424;2023-09-08T08:52:30;101731.19;;;24.45;75.39
71976;BME280;68326;52.124;5.424;2023-09-08T08:54:56;101730.66;;;24.51;75.24
71976;BME280;68326;52.124;5.424;2023-09-08T08:57:24;101731.44;;;24.61;73.75
71976;BME280;68326;52.124;5.424;2023-09-08T08:59:54;101746.25;;;24.74;73.28
71976;BME280;68326;52.124;5.424;2023-09-08T09:02:21;101743.22;;;24.87;75.19
71976;BME280;68326;52.124;5.424;2023-09-08T09:04:48;101738.81;;;24.95;74.26
71976;BME280;68326;52.124;5.424;2023-09-08T09:07:18;101733.38;;;25.15;73.88
71976;BME280;68326;52.124;5.424;2023-09-08T09:09:45;101740.31;;;25.26;72.58
71976;BME280;68326;52.124;5.424;2023-09-08T09:12:12;101736.13;;;25.41;73.31
71976;BME280;68326;52.124;5.424;2023-09-08T09:14:45;101730.25;;;25.55;71.88
71976;BME280;68326;52.124;5.424;2023-09-08T09:17:14;101733.97;;;25.62;70.55
71976;BME280;68326;52.124;5.424;2023-09-08T09:19:41;101740.38;;;25.70;70.79
71976;BME280;68326;52.124;5.424;2023-09-08T09:22:07;101742.66;;;25.82;69.59
71976;BME280;68326;52.124;5.424;2023-09-08T09:24:43;101744.31;;;26.01;69.67
71976;BME280;68326;52.124;5.424;2023-09-08T09:27:11;101737.91;;;26.20;66.92
71976;BME280;68326;52.124;5.424;2023-09-08T09:29:45;101745.41;;;26.51;70.01
71976;BME280;68326;52.124;5.424;2023-09-08T09:32:16;101741.75;;;26.52;69.68
71976;BME280;68326;52.124;5.424;2023-09-08T09:34:53;101736.00;;;26.65;67.51
71976;BME280;68326;52.124;5.424;2023-09-08T09:37:20;101735.47;;;26.61;67.23
71976;BME280;68326;52.124;5.424;2023-09-08T09:39:52;101742.88;;;26.84;65.66
71976;BME280;68326;52.124;5.424;2023-09-08T09:42:20;101741.25;;;26.99;61.98
71976;BME280;68326;52.124;5.424;2023-09-08T09:44:48;101740.94;;;27.11;64.94
71976;BME280;68326;52.124;5.424;2023-09-08T09:47:16;101732.31;;;27.33;65.26
71976;BME280;68326;52.124;5.424;2023-09-08T09:49:43;101736.50;;;27.36;61.98
71976;BME280;68326;52.124;5.424;2023-09-08T09:52:12;101734.00;;;27.51;62.35
71976;BME280;68326;52.124;5.424;2023-09-08T09:54:42;101742.34;;;27.64;61.76
71976;BME280;68326;52.124;5.424;2023-09-08T09:57:13;101741.31;;;27.81;63.88
71976;BME280;68326;52.124;5.424;2023-09-08T09:59:43;101737.66;;;27.82;60.23
71976;BME280;68326;52.124;5.424;2023-09-08T10:02:12;101737.97;;;27.79;61.72
71976;BME280;68326;52.124;5.424;2023-09-08T10:04:40;101739.50;;;27.82;61.31
71976;BME280;68326;52.124;5.424;2023-09-08T10:07:07;101732.00;;;27.85;60.90
71976;BME280;68326;52.124;5.424;2023-09-08T10:09:36;101735.31;;;27.88;61.42
71976;BME280;68326;52.124;5.424;2023-09-08T10:12:06;101734.28;;;28.13;61.87
71976;BME280;68326;52.124;5.424;2023-09-08T10:14:40;101736.72;;;28.39;61.13
71976;BME280;68326;52.124;5.424;2023-09-08T10:17:12;101729.66;;;28.46;59.31
71976;BME280;68326;52.124;5.424;2023-09-08T10:19:44;101734.03;;;28.39;58.39
71976;BME280;68326;52.124;5.424;2023-09-08T10:22:20;101729.50;;;28.56;60.03
71976;BME280;68326;52.124;5.424;2023-09-08T10:24:50;101729.41;;;28.64;59.34
71976;BME280;68326;52.124;5.424;2023-09-08T10:27:20;101734.06;;;28.71;57.26
71976;BME280;68326;52.124;5.424;2023-09-08T10:29:48;101733.53;;;28.75;60.44
71976;BME280;68326;52.124;5.424;2023-09-08T10:32:15;101733.34;;;28.85;60.86
71976;BME280;68326;52.124;5.424;2023-09-08T10:34:44;101728.28;;;28.90;59.29
71976;BME280;68326;52.124;5.424;2023-09-08T10:37:22;101729.13;;;28.91;59.67
71976;BME280;68326;52.124;5.424;2023-09-08T10:39:51;101729.19;;;28.82;59.91
71976;BME280;68326;52.124;5.424;2023-09-08T10:50:20;101710.59;;;29.35;58.31
71976;BME280;68326;52.124;5.424;2023-09-08T10:53:06;101713.97;;;29.29;57.85
71976;BME280;68326;52.124;5.424;2023-09-08T10:55:39;101718.84;;;29.48;61.44
71976;BME280;68326;52.124;5.424;2023-09-08T10:58:09;101715.06;;;29.58;58.07
71976;BME280;68326;52.124;5.424;2023-09-08T11:00:48;101715.03;;;29.81;56.90
71976;BME280;68326;52.124;5.424;2023-09-08T11:03:27;101706.25;;;29.87;57.44
71976;BME280;68326;52.124;5.424;2023-09-08T11:05:56;101713.41;;;29.95;58.91
71976;BME280;68326;52.124;5.424;2023-09-08T11:08:23;101719.03;;;30.00;54.76
71976;BME280;68326;52.124;5.424;2023-09-08T11:10:55;101714.13;;;29.88;54.99
71976;BME280;68326;52.124;5.424;2023-09-08T11:13:21;101714.88;;;30.12;55.71
71976;BME280;68326;52.124;5.424;2023-09-08T11:15:51;101714.06;;;30.26;55.92
71976;BME280;68326;52.124;5.424;2023-09-08T11:18:28;101715.00;;;30.34;55.04
71976;BME280;68326;52.124;5.424;2023-09-08T11:20:56;101710.44;;;30.19;54.22
71976;BME280;68326;52.124;5.424;2023-09-08T11:23:23;101712.69;;;30.16;55.16
71976;BME280;68326;52.124;5.424;2023-09-08T11:25:51;101719.13;;;30.21;54.26
71976;BME280;68326;52.124;5.424;2023-09-08T11:28:23;101719.44;;;30.41;57.69
71976;BME280;68326;52.124;5.424;2023-09-08T11:30:51;101720.09;;;30.43;54.40
71976;BME280;68326;52.124;5.424;2023-09-08T11:33:19;101722.22;;;30.48;53.06
71976;BME280;68326;52.124;5.424;2023-09-08T11:35:52;101717.56;;;30.57;54.07
71976;BME280;68326;52.124;5.424;2023-09-08T11:38:27;101725.09;;;30.83;55.99
71976;BME280;68326;52.124;5.424;2023-09-08T11:40:55;101715.28;;;30.90;53.22
71976;BME280;68326;52.124;5.424;2023-09-08T11:43:24;101713.16;;;30.71;52.54
71976;BME280;68326;52.124;5.424;2023-09-08T11:45:51;101720.31;;;30.63;55.80
71976;BME280;68326;52.124;5.424;2023-09-08T11:48:19;101712.13;;;30.86;53.91
71976;BME280;68326;52.124;5.424;2023-09-08T11:50:45;101715.78;;;30.85;52.49
71976;BME280;68326;52.124;5.424;2023-09-08T11:53:12;101713.50;;;30.82;50.95
71976;BME280;68326;52.124;5.424;2023-09-08T11:55:38;101714.19;;;30.69;55.44
71976;BME280;68326;52.124;5.424;2023-09-08T11:58:06;101714.91;;;30.78;56.77
71976;BME280;68326;52.124;5.424;2023-09-08T12:00:33;101712.13;;;30.86;54.36
71976;BME280;68326;52.124;5.424;2023-09-08T12:03:13;101714.25;;;31.13;54.90
71976;BME280;68326;52.124;5.424;2023-09-08T12:05:42;101714.78;;;31.01;54.11
71976;BME280;68326;52.124;5.424;2023-09-08T12:08:10;101712.03;;;30.80;51.65
71976;BME280;68326;52.124;5.424;2023-09-08T12:10:43;101708.88;;;30.76;54.80
71976;BME280;68326;52.124;5.424;2023-09-08T12:13:09;101706.25;;;30.61;54.18
71976;BME280;68326;52.124;5.424;2023-09-08T12:15:38;101712.09;;;30.50;53.95
71976;BME280;68326;52.124;5.424;2023-09-08T12:18:09;101710.16;;;30.44;55.51
71976;BME280;68326;52.124;5.424;2023-09-08T12:20:37;101708.38;;;30.51;53.25
71976;BME280;68326;52.124;5.424;2023-09-08T12:23:27;101709.34;;;30.43;53.32
71976;BME280;68326;52.124;5.424;2023-09-08T12:25:53;101708.56;;;30.49;54.48
71976;BME280;68326;52.124;5.424;2023-09-08T12:28:21;101707.56;;;30.51;53.34
71976;BME280;68326;52.124;5.424;2023-09-08T12:30:51;101700.31;;;30.51;51.97
71976;BME280;68326;52.124;5.424;2023-09-08T12:33:19;101709.63;;;30.34;52.87
71976;BME280;68326;52.124;5.424;2023-09-08T12:35:48;101702.78;;;30.31;55.47
71976;BME280;68326;52.124;5.424;2023-09-08T12:38:14;101700.75;;;30.33;54.92
71976;BME280;68326;52.124;5.424;2023-09-08T12:40:41;101698.69;;;30.20;54.03
71976;BME280;68326;52.124;5.424;2023-09-08T12:43:08;101696.66;;;30.22;56.27
71976;BME280;68326;52.124;5.424;2023-09-08T12:45:53;101698.13;;;30.25;56.76
71976;BME280;68326;52.124;5.424;2023-09-08T12:48:20;101701.81;;;30.24;54.47
71976;BME280;68326;52.124;5.424;2023-09-08T12:50:47;101700.28;;;30.30;54.12
71976;BME280;68326;52.124;5.424;2023-09-08T12:53:17;101697.28;;;30.24;53.04
71976;BME280;68326;52.124;5.424;2023-09-08T12:55:47;101694.41;;;30.26;54.85
71976;BME280;68326;52.124;5.424;2023-09-08T12:58:14;101687.88;;;30.28;54.80
71976;BME280;68326;52.124;5.424;2023-09-08T13:00:41;101691.66;;;30.34;55.15